sensor_id;sensor_type;location;lat;lon;timestamp;P1;durP1;ratioP1;P2;durP2;ratioP2
51943;SDS011;37969;53.132;6.370;2023-05-23T00:00:58;71.25;;;34.03;;
51943;SDS011;37969;53.132;6.370;2023-05-23T00:03:25;66.10;;;33.30;;
51943;SDS011;37969;53.132;6.370;2023-05-23T00:05:51;68.85;;;33.03;;
51943;SDS011;37969;53.132;6.370;2023-05-23T00:08:17;62.00;;;32.67;;
51943;SDS011;37969;53.132;6.370;2023-05-23T00:10:44;51.20;;;30.77;;
51943;SDS011;37969;53.132;6.370;2023-05-23T00:13:11;59.53;;;29.92;;
51943;SDS011;37969;53.132;6.370;2023-05-23T00:15:37;58.90;;;28.90;;
51943;SDS011;37969;53.132;6.370;2023-05-23T00:18:05;62.15;;;29.75;;
51943;SDS011;37969;53.132;6.370;2023-05-23T00:20:33;53.92;;;27.20;;
51943;SDS011;37969;53.132;6.370;2023-05-23T00:23:00;49.63;;;27.15;;
51943;SDS011;37969;53.132;6.370;2023-05-23T00:25:28;46.47;;;26.10;;
51943;SDS011;37969;53.132;6.370;2023-05-23T00:27:58;45.47;;;24.45;;
51943;SDS011;37969;53.132;6.370;2023-05-23T00:30:25;46.47;;;25.55;;
51943;SDS011;37969;53.132;6.370;2023-05-23T00:32:51;32.28;;;21.98;;
51943;SDS011;37969;53.132;6.370;2023-05-23T00:35:19;40.53;;;22.73;;
51943;SDS011;37969;53.132;6.370;2023-05-23T00:37:45;36.85;;;23.65;;
51943;SDS011;37969;53.132;6.370;2023-05-23T00:40:14;34.47;;;22.47;;
51943;SDS011;37969;53.132;6.370;2023-05-23T00:42:40;39.17;;;23.40;;
51943;SDS011;37969;53.132;6.370;2023-05-23T00:45:06;41.80;;;23.45;;
51943;SDS011;37969;53.132;6.370;2023-05-23T00:47:33;37.38;;;22.92;;
51943;SDS011;37969;53.132;6.370;2023-05-23T00:49:59;36.78;;;20.60;;
51943;SDS011;37969;53.132;6.370;2023-05-23T00:52:25;36.17;;;20.20;;
51943;SDS011;37969;53.132;6.370;2023-05-23T00:54:51;35.42;;;20.33;;
51943;SDS011;37969;53.132;6.370;2023-05-23T00:57:17;40.25;;;19.65;;
51943;SDS011;37969;53.132;6.370;2023-05-23T00:59:44;38.10;;;18.92;;
51943;SDS011;37969;53.132;6.370;2023-05-23T01:02:10;37.58;;;17.10;;
51943;SDS011;37969;53.132;6.370;2023-05-23T01:04:37;30.15;;;15.35;;
51943;SDS011;37969;53.132;6.370;2023-05-23T01:07:03;31.08;;;13.77;;
51943;SDS011;37969;53.132;6.370;2023-05-23T01:09:30;33.63;;;14.23;;
51943;SDS011;37969;53.132;6.370;2023-05-23T01:12:07;37.55;;;15.73;;
51943;SDS011;37969;53.132;6.370;2023-05-23T01:14:48;39.83;;;16.17;;
51943;SDS011;37969;53.132;6.370;2023-05-23T01:17:18;39.22;;;16.10;;
51943;SDS011;37969;53.132;6.370;2023-05-23T01:19:48;43.55;;;17.65;;
51943;SDS011;37969;53.132;6.370;2023-05-23T01:22:30;35.72;;;16.05;;
51943;SDS011;37969;53.132;6.370;2023-05-23T01:25:04;42.45;;;17.70;;
51943;SDS011;37969;53.132;6.370;2023-05-23T01:30:10;40.08;;;16.13;;
51943;SDS011;37969;53.132;6.370;2023-05-23T01:32:38;49.47;;;18.42;;
51943;SDS011;37969;53.132;6.370;2023-05-23T01:35:05;41.88;;;17.70;;
51943;SDS011;37969;53.132;6.370;2023-05-23T01:37:31;44.72;;;18.75;;
51943;SDS011;37969;53.132;6.370;2023-05-23T01:39:57;43.65;;;18.20;;
51943;SDS011;37969;53.132;6.370;2023-05-23T01:42:24;51.13;;;20.10;;
51943;SDS011;37969;53.132;6.370;2023-05-23T01:44:52;44.28;;;19.90;;
51943;SDS011;37969;53.132;6.370;2023-05-23T01:47:18;50.22;;;19.23;;
51943;SDS011;37969;53.132;6.370;2023-05-23T01:49:45;51.53;;;18.67;;
51943;SDS011;37969;53.132;6.370;2023-05-23T01:52:12;47.65;;;18.88;;
51943;SDS011;37969;53.132;6.370;2023-05-23T01:54:39;47.65;;;19.02;;
51943;SDS011;37969;53.132;6.370;2023-05-23T01:57:07;50.40;;;19.13;;
51943;SDS011;37969;53.132;6.370;2023-05-23T01:59:34;43.88;;;17.65;;
51943;SDS011;37969;53.132;6.370;2023-05-23T02:02:00;51.55;;;19.15;;
51943;SDS011;37969;53.132;6.370;2023-05-23T02:04:26;43.33;;;18.20;;
51943;SDS011;37969;53.132;6.370;2023-05-23T02:06:53;39.38;;;18.08;;
51943;SDS011;37969;53.132;6.370;2023-05-23T02:09:19;53.42;;;19.77;;
51943;SDS011;37969;53.132;6.370;2023-05-23T02:11:45;41.97;;;17.85;;
51943;SDS011;37969;53.132;6.370;2023-05-23T02:14:11;41.55;;;17.92;;
51943;SDS011;37969;53.132;6.370;2023-05-23T02:16:37;40.10;;;16.08;;
51943;SDS011;37969;53.132;6.370;2023-05-23T02:19:03;29.48;;;13.32;;
51943;SDS011;37969;53.132;6.370;2023-05-23T02:21:30;41.22;;;14.45;;
51943;SDS011;37969;53.132;6.370;2023-05-23T02:23:56;31.88;;;12.70;;
51943;SDS011;37969;53.132;6.370;2023-05-23T02:26:22;33.88;;;12.50;;
51943;SDS011;37969;53.132;6.370;2023-05-23T02:28:48;39.22;;;13.48;;
51943;SDS011;37969;53.132;6.370;2023-05-23T02:31:15;34.20;;;11.98;;
51943;SDS011;37969;53.132;6.370;2023-05-23T02:33:41;33.45;;;10.68;;
51943;SDS011;37969;53.132;6.370;2023-05-23T02:36:07;31.77;;;11.98;;
51943;SDS011;37969;53.132;6.370;2023-05-23T02:38:33;37.45;;;11.07;;
51943;SDS011;37969;53.132;6.370;2023-05-23T02:40:59;32.33;;;11.50;;
51943;SDS011;37969;53.132;6.370;2023-05-23T02:43:25;28.70;;;10.82;;
51943;SDS011;37969;53.132;6.370;2023-05-23T02:45:52;38.63;;;11.23;;
51943;SDS011;37969;53.132;6.370;2023-05-23T02:48:18;39.92;;;10.93;;
51943;SDS011;37969;53.132;6.370;2023-05-23T02:50:44;36.63;;;11.85;;
51943;SDS011;37969;53.132;6.370;2023-05-23T02:53:10;39.05;;;11.70;;
51943;SDS011;37969;53.132;6.370;2023-05-23T02:55:36;33.08;;;11.90;;
51943;SDS011;37969;53.132;6.370;2023-05-23T02:58:02;31.30;;;11.50;;
51943;SDS011;37969;53.132;6.370;2023-05-23T03:00:30;41.72;;;13.07;;
51943;SDS011;37969;53.132;6.370;2023-05-23T03:02:56;29.50;;;11.68;;
51943;SDS011;37969;53.132;6.370;2023-05-23T03:05:22;38.20;;;12.90;;
51943;SDS011;37969;53.132;6.370;2023-05-23T03:07:49;35.47;;;11.48;;
51943;SDS011;37969;53.132;6.370;2023-05-23T03:10:16;34.42;;;11.48;;
51943;SDS011;37969;53.132;6.370;2023-05-23T03:12:43;36.35;;;11.55;;
51943;SDS011;37969;53.132;6.370;2023-05-23T03:15:09;33.35;;;11.10;;
51943;SDS011;37969;53.132;6.370;2023-05-23T03:17:35;29.23;;;10.48;;
51943;SDS011;37969;53.132;6.370;2023-05-23T03:20:01;33.13;;;10.90;;
51943;SDS011;37969;53.132;6.370;2023-05-23T03:22:28;32.50;;;10.73;;
51943;SDS011;37969;53.132;6.370;2023-05-23T03:24:54;29.58;;;10.25;;
51943;SDS011;37969;53.132;6.370;2023-05-23T03:27:21;36.28;;;10.15;;
51943;SDS011;37969;53.132;6.370;2023-05-23T03:29:47;27.10;;;10.20;;
51943;SDS011;37969;53.132;6.370;2023-05-23T03:32:13;23.35;;;8.95;;
51943;SDS011;37969;53.132;6.370;2023-05-23T03:34:39;28.58;;;9.35;;
51943;SDS011;37969;53.132;6.370;2023-05-23T03:37:05;31.05;;;9.18;;
51943;SDS011;37969;53.132;6.370;2023-05-23T03:39:31;23.33;;;9.05;;
51943;SDS011;37969;53.132;6.370;2023-05-23T03:41:58;28.35;;;8.82;;
51943;SDS011;37969;53.132;6.370;2023-05-23T03:44:24;36.47;;;10.05;;
51943;SDS011;37969;53.132;6.370;2023-05-23T03:46:50;23.77;;;8.25;;
51943;SDS011;37969;53.132;6.370;2023-05-23T03:49:16;29.67;;;9.10;;
51943;SDS011;37969;53.132;6.370;2023-05-23T03:51:42;24.30;;;7.68;;
51943;SDS011;37969;53.132;6.370;2023-05-23T03:54:08;22.52;;;7.65;;
51943;SDS011;37969;53.132;6.370;2023-05-23T03:56:34;21.30;;;6.50;;
51943;SDS011;37969;53.132;6.370;2023-05-23T03:59:01;28.45;;;7.88;;
51943;SDS011;37969;53.132;6.370;2023-05-23T04:01:27;21.45;;;7.53;;
51943;SDS011;37969;53.132;6.370;2023-05-23T04:03:53;28.23;;;7.45;;
51943;SDS011;37969;53.132;6.370;2023-05-23T04:06:19;26.90;;;8.18;;
51943;SDS011;37969;53.132;6.370;2023-05-23T04:08:46;28.73;;;8.00;;
51943;SDS011;37969;53.132;6.370;2023-05-23T04:11:13;25.67;;;8.10;;
51943;SDS011;37969;53.132;6.370;2023-05-23T04:13:39;26.90;;;8.85;;
51943;SDS011;37969;53.132;6.370;2023-05-23T04:16:06;28.73;;;7.88;;
51943;SDS011;37969;53.132;6.370;2023-05-23T04:18:32;24.65;;;8.32;;
51943;SDS011;37969;53.132;6.370;2023-05-23T04:21:00;24.70;;;7.70;;
51943;SDS011;37969;53.132;6.370;2023-05-23T04:23:26;22.17;;;7.78;;
51943;SDS011;37969;53.132;6.370;2023-05-23T04:25:52;21.45;;;6.93;;
51943;SDS011;37969;53.132;6.370;2023-05-23T04:28:18;24.73;;;7.55;;
51943;SDS011;37969;53.132;6.370;2023-05-23T04:30:44;22.63;;;7.43;;
51943;SDS011;37969;53.132;6.370;2023-05-23T04:33:13;30.50;;;8.20;;
51943;SDS011;37969;53.132;6.370;2023-05-23T04:35:41;26.15;;;7.80;;
51943;SDS011;37969;53.132;6.370;2023-05-23T04:38:07;21.77;;;7.53;;
51943;SDS011;37969;53.132;6.370;2023-05-23T04:40:34;30.48;;;9.15;;
51943;SDS011;37969;53.132;6.370;2023-05-23T04:43:00;30.45;;;9.95;;
51943;SDS011;37969;53.132;6.370;2023-05-23T04:45:26;30.85;;;9.13;;
51943;SDS011;37969;53.132;6.370;2023-05-23T04:47:52;35.63;;;9.43;;
51943;SDS011;37969;53.132;6.370;2023-05-23T04:50:19;29.20;;;9.07;;
51943;SDS011;37969;53.132;6.370;2023-05-23T04:52:47;31.58;;;10.32;;
51943;SDS011;37969;53.132;6.370;2023-05-23T04:55:13;31.83;;;10.85;;
51943;SDS011;37969;53.132;6.370;2023-05-23T04:57:39;35.97;;;9.13;;
51943;SDS011;37969;53.132;6.370;2023-05-23T05:00:05;26.70;;;9.95;;
51943;SDS011;37969;53.132;6.370;2023-05-23T05:02:34;27.40;;;10.52;;
51943;SDS011;37969;53.132;6.370;2023-05-23T05:05:01;32.78;;;11.18;;
51943;SDS011;37969;53.132;6.370;2023-05-23T05:07:29;25.13;;;9.85;;
51943;SDS011;37969;53.132;6.370;2023-05-23T05:09:55;25.20;;;8.30;;
51943;SDS011;37969;53.132;6.370;2023-05-23T05:12:21;28.50;;;9.05;;
51943;SDS011;37969;53.132;6.370;2023-05-23T05:14:48;29.33;;;10.70;;
51943;SDS011;37969;53.132;6.370;2023-05-23T05:17:14;29.17;;;9.50;;
51943;SDS011;37969;53.132;6.370;2023-05-23T05:19:40;26.20;;;8.50;;
51943;SDS011;37969;53.132;6.370;2023-05-23T05:22:07;25.27;;;8.80;;
51943;SDS011;37969;53.132;6.370;2023-05-23T05:24:33;21.42;;;8.02;;
51943;SDS011;37969;53.132;6.370;2023-05-23T05:26:59;24.20;;;8.27;;
51943;SDS011;37969;53.132;6.370;2023-05-23T05:29:25;25.63;;;7.95;;
51943;SDS011;37969;53.132;6.370;2023-05-23T05:31:51;22.80;;;7.78;;
51943;SDS011;37969;53.132;6.370;2023-05-23T05:34:17;23.48;;;8.18;;
51943;SDS011;37969;53.132;6.370;2023-05-23T05:36:44;16.52;;;7.65;;
51943;SDS011;37969;53.132;6.370;2023-05-23T05:39:12;18.90;;;6.97;;
51943;SDS011;37969;53.132;6.370;2023-05-23T05:41:38;37.15;;;8.73;;
51943;SDS011;37969;53.132;6.370;2023-05-23T05:44:05;19.90;;;6.95;;
51943;SDS011;37969;53.132;6.370;2023-05-23T05:46:31;26.45;;;7.88;;
51943;SDS011;37969;53.132;6.370;2023-05-23T05:48:57;26.02;;;7.60;;
51943;SDS011;37969;53.132;6.370;2023-05-23T05:51:23;23.13;;;7.75;;
51943;SDS011;37969;53.132;6.370;2023-05-23T05:53:49;25.20;;;7.88;;
51943;SDS011;37969;53.132;6.370;2023-05-23T05:56:15;24.52;;;7.70;;
51943;SDS011;37969;53.132;6.370;2023-05-23T05:58:42;21.85;;;7.07;;
51943;SDS011;37969;53.132;6.370;2023-05-23T06:01:08;21.02;;;6.93;;
51943;SDS011;37969;53.132;6.370;2023-05-23T06:03:34;22.92;;;7.03;;
51943;SDS011;37969;53.132;6.370;2023-05-23T06:06:00;22.33;;;6.22;;
51943;SDS011;37969;53.132;6.370;2023-05-23T06:08:26;23.85;;;6.32;;
51943;SDS011;37969;53.132;6.370;2023-05-23T06:10:52;24.42;;;6.13;;
51943;SDS011;37969;53.132;6.370;2023-05-23T06:13:18;26.02;;;6.07;;
51943;SDS011;37969;53.132;6.370;2023-05-23T06:15:44;19.23;;;5.97;;
51943;SDS011;37969;53.132;6.370;2023-05-23T06:18:10;21.35;;;5.50;;
51943;SDS011;37969;53.132;6.370;2023-05-23T06:20:37;22.90;;;6.05;;
51943;SDS011;37969;53.132;6.370;2023-05-23T06:23:03;25.67;;;6.05;;
51943;SDS011;37969;53.132;6.370;2023-05-23T06:25:30;28.83;;;5.88;;
51943;SDS011;37969;53.132;6.370;2023-05-23T06:27:56;26.85;;;6.20;;
51943;SDS011;37969;53.132;6.370;2023-05-23T06:30:22;23.00;;;6.18;;
51943;SDS011;37969;53.132;6.370;2023-05-23T06:32:48;23.73;;;5.20;;
51943;SDS011;37969;53.132;6.370;2023-05-23T06:35:15;25.33;;;5.28;;
51943;SDS011;37969;53.132;6.370;2023-05-23T06:37:41;27.02;;;5.32;;
51943;SDS011;37969;53.132;6.370;2023-05-23T06:40:11;20.98;;;5.05;;
51943;SDS011;37969;53.132;6.370;2023-05-23T06:42:38;22.15;;;4.95;;
51943;SDS011;37969;53.132;6.370;2023-05-23T06:45:05;22.77;;;5.88;;
51943;SDS011;37969;53.132;6.370;2023-05-23T06:47:32;26.02;;;4.93;;
51943;SDS011;37969;53.132;6.370;2023-05-23T06:49:58;26.75;;;5.60;;
51943;SDS011;37969;53.132;6.370;2023-05-23T06:52:25;22.90;;;5.50;;
51943;SDS011;37969;53.132;6.370;2023-05-23T06:54:51;19.45;;;4.82;;
51943;SDS011;37969;53.132;6.370;2023-05-23T06:57:18;26.02;;;5.00;;
51943;SDS011;37969;53.132;6.370;2023-05-23T06:59:44;24.85;;;5.43;;
51943;SDS011;37969;53.132;6.370;2023-05-23T07:02:10;28.75;;;5.10;;
51943;SDS011;37969;53.132;6.370;2023-05-23T07:04:36;30.33;;;5.25;;
51943;SDS011;37969;53.132;6.370;2023-05-23T07:07:03;29.70;;;6.00;;
51943;SDS011;37969;53.132;6.370;2023-05-23T07:09:29;30.52;;;5.72;;
51943;SDS011;37969;53.132;6.370;2023-05-23T07:11:55;21.27;;;5.57;;
51943;SDS011;37969;53.132;6.370;2023-05-23T07:14:21;22.38;;;5.25;;
51943;SDS011;37969;53.132;6.370;2023-05-23T07:16:47;22.65;;;4.78;;
51943;SDS011;37969;53.132;6.370;2023-05-23T07:19:13;25.42;;;4.80;;
51943;SDS011;37969;53.132;6.370;2023-05-23T07:21:40;34.42;;;5.70;;
51943;SDS011;37969;53.132;6.370;2023-05-23T07:24:06;24.13;;;4.78;;
51943;SDS011;37969;53.132;6.370;2023-05-23T07:26:32;27.05;;;5.25;;
51943;SDS011;37969;53.132;6.370;2023-05-23T07:28:58;29.33;;;5.88;;
51943;SDS011;37969;53.132;6.370;2023-05-23T07:31:24;27.85;;;5.90;;
51943;SDS011;37969;53.132;6.370;2023-05-23T07:33:51;30.70;;;4.80;;
51943;SDS011;37969;53.132;6.370;2023-05-23T07:36:17;30.55;;;5.20;;
51943;SDS011;37969;53.132;6.370;2023-05-23T07:38:43;21.90;;;5.18;;
51943;SDS011;37969;53.132;6.370;2023-05-23T07:41:10;31.55;;;5.15;;
51943;SDS011;37969;53.132;6.370;2023-05-23T07:43:36;26.10;;;4.78;;
51943;SDS011;37969;53.132;6.370;2023-05-23T07:46:02;18.42;;;4.82;;
51943;SDS011;37969;53.132;6.370;2023-05-23T07:48:28;27.27;;;5.15;;
51943;SDS011;37969;53.132;6.370;2023-05-23T07:50:56;21.65;;;4.75;;
51943;SDS011;37969;53.132;6.370;2023-05-23T07:53:22;26.95;;;5.05;;
51943;SDS011;37969;53.132;6.370;2023-05-23T07:55:48;21.02;;;4.97;;
51943;SDS011;37969;53.132;6.370;2023-05-23T07:58:14;30.70;;;5.35;;
51943;SDS011;37969;53.132;6.370;2023-05-23T08:00:40;27.30;;;5.15;;
51943;SDS011;37969;53.132;6.370;2023-05-23T08:03:08;23.95;;;4.68;;
51943;SDS011;37969;53.132;6.370;2023-05-23T08:05:35;27.23;;;4.88;;
51943;SDS011;37969;53.132;6.370;2023-05-23T08:08:01;30.30;;;5.13;;
51943;SDS011;37969;53.132;6.370;2023-05-23T08:10:28;22.02;;;4.70;;
51943;SDS011;37969;53.132;6.370;2023-05-23T08:12:54;32.75;;;5.60;;
51943;SDS011;37969;53.132;6.370;2023-05-23T08:15:20;20.25;;;4.68;;
51943;SDS011;37969;53.132;6.370;2023-05-23T08:17:48;30.88;;;5.82;;
51943;SDS011;37969;53.132;6.370;2023-05-23T08:20:14;25.75;;;5.72;;
51943;SDS011;37969;53.132;6.370;2023-05-23T08:22:40;26.77;;;5.90;;
51943;SDS011;37969;53.132;6.370;2023-05-23T08:25:07;26.75;;;5.88;;
51943;SDS011;37969;53.132;6.370;2023-05-23T08:27:33;27.65;;;4.75;;
51943;SDS011;37969;53.132;6.370;2023-05-23T08:30:00;35.72;;;5.82;;
51943;SDS011;37969;53.132;6.370;2023-05-23T08:32:27;23.42;;;5.20;;
51943;SDS011;37969;53.132;6.370;2023-05-23T08:34:54;26.15;;;4.95;;
51943;SDS011;37969;53.132;6.370;2023-05-23T08:37:20;25.67;;;5.55;;
51943;SDS011;37969;53.132;6.370;2023-05-23T08:39:46;26.92;;;5.03;;
51943;SDS011;37969;53.132;6.370;2023-05-23T08:42:12;25.13;;;5.45;;
51943;SDS011;37969;53.132;6.370;2023-05-23T08:44:38;33.70;;;5.50;;
51943;SDS011;37969;53.132;6.370;2023-05-23T08:47:04;24.45;;;4.53;;
51943;SDS011;37969;53.132;6.370;2023-05-23T08:49:32;22.75;;;5.10;;
51943;SDS011;37969;53.132;6.370;2023-05-23T08:52:00;21.40;;;5.05;;
51943;SDS011;37969;53.132;6.370;2023-05-23T08:54:28;21.40;;;4.38;;
51943;SDS011;37969;53.132;6.370;2023-05-23T08:56:54;24.75;;;5.45;;
51943;SDS011;37969;53.132;6.370;2023-05-23T08:59:20;27.17;;;5.60;;
51943;SDS011;37969;53.132;6.370;2023-05-23T09:01:47;22.48;;;5.15;;
51943;SDS011;37969;53.132;6.370;2023-05-23T09:04:15;20.55;;;5.05;;
51943;SDS011;37969;53.132;6.370;2023-05-23T09:06:41;19.55;;;4.53;;
51943;SDS011;37969;53.132;6.370;2023-05-23T09:09:07;29.55;;;5.35;;
51943;SDS011;37969;53.132;6.370;2023-05-23T09:11:33;23.08;;;4.18;;
51943;SDS011;37969;53.132;6.370;2023-05-23T09:14:00;25.90;;;4.88;;
51943;SDS011;37969;53.132;6.370;2023-05-23T09:16:31;18.25;;;4.50;;
51943;SDS011;37969;53.132;6.370;2023-05-23T09:19:00;23.10;;;4.88;;
51943;SDS011;37969;53.132;6.370;2023-05-23T09:21:34;23.98;;;4.72;;
51943;SDS011;37969;53.132;6.370;2023-05-23T09:24:01;26.48;;;5.18;;
51943;SDS011;37969;53.132;6.370;2023-05-23T09:26:27;26.65;;;4.85;;
51943;SDS011;37969;53.132;6.370;2023-05-23T09:28:56;24.13;;;4.35;;
51943;SDS011;37969;53.132;6.370;2023-05-23T09:31:25;23.23;;;4.53;;
51943;SDS011;37969;53.132;6.370;2023-05-23T09:33:53;21.17;;;4.53;;
51943;SDS011;37969;53.132;6.370;2023-05-23T09:36:19;27.67;;;5.10;;
51943;SDS011;37969;53.132;6.370;2023-05-23T09:38:46;25.23;;;5.35;;
51943;SDS011;37969;53.132;6.370;2023-05-23T09:41:13;21.58;;;3.90;;
51943;SDS011;37969;53.132;6.370;2023-05-23T09:43:48;30.10;;;4.75;;
51943;SDS011;37969;53.132;6.370;2023-05-23T09:46:15;20.92;;;3.83;;
51943;SDS011;37969;53.132;6.370;2023-05-23T09:48:46;20.20;;;4.65;;
51943;SDS011;37969;53.132;6.370;2023-05-23T09:51:12;25.80;;;4.18;;
51943;SDS011;37969;53.132;6.370;2023-05-23T09:53:38;27.33;;;5.07;;
51943;SDS011;37969;53.132;6.370;2023-05-23T09:56:04;24.38;;;5.07;;
51943;SDS011;37969;53.132;6.370;2023-05-23T09:58:31;29.80;;;5.63;;
51943;SDS011;37969;53.132;6.370;2023-05-23T10:00:59;28.70;;;5.18;;
51943;SDS011;37969;53.132;6.370;2023-05-23T10:05:55;30.13;;;6.38;;
51943;SDS011;37969;53.132;6.370;2023-05-23T10:08:23;23.80;;;5.55;;
51943;SDS011;37969;53.132;6.370;2023-05-23T10:13:22;28.08;;;5.03;;
51943;SDS011;37969;53.132;6.370;2023-05-23T10:15:51;18.38;;;4.18;;
51943;SDS011;37969;53.132;6.370;2023-05-23T10:18:19;25.13;;;4.70;;
51943;SDS011;37969;53.132;6.370;2023-05-23T10:20:48;23.27;;;4.80;;
51943;SDS011;37969;53.132;6.370;2023-05-23T10:23:14;19.13;;;4.15;;
51943;SDS011;37969;53.132;6.370;2023-05-23T10:25:42;23.13;;;4.63;;
51943;SDS011;37969;53.132;6.370;2023-05-23T10:28:09;22.15;;;4.40;;
51943;SDS011;37969;53.132;6.370;2023-05-23T10:30:36;22.25;;;4.43;;
51943;SDS011;37969;53.132;6.370;2023-05-23T10:33:03;17.95;;;4.18;;
51943;SDS011;37969;53.132;6.370;2023-05-23T10:40:45;25.33;;;3.97;;
51943;SDS011;37969;53.132;6.370;2023-05-23T10:43:30;18.88;;;4.68;;
51943;SDS011;37969;53.132;6.370;2023-05-23T10:45:59;23.50;;;5.35;;
51943;SDS011;37969;53.132;6.370;2023-05-23T10:51:00;18.40;;;4.38;;
51943;SDS011;37969;53.132;6.370;2023-05-23T10:53:28;22.73;;;4.67;;
51943;SDS011;37969;53.132;6.370;2023-05-23T10:55:54;24.17;;;5.05;;
51943;SDS011;37969;53.132;6.370;2023-05-23T10:58:21;31.17;;;5.57;;
51943;SDS011;37969;53.132;6.370;2023-05-23T11:00:51;21.45;;;4.35;;
51943;SDS011;37969;53.132;6.370;2023-05-23T11:03:18;24.00;;;5.20;;
51943;SDS011;37969;53.132;6.370;2023-05-23T11:05:55;21.38;;;4.38;;
51943;SDS011;37969;53.132;6.370;2023-05-23T11:08:22;24.05;;;4.93;;
51943;SDS011;37969;53.132;6.370;2023-05-23T11:10:53;24.55;;;5.07;;
51943;SDS011;37969;53.132;6.370;2023-05-23T11:15:45;23.35;;;4.00;;
51943;SDS011;37969;53.132;6.370;2023-05-23T11:18:18;17.83;;;4.53;;
51943;SDS011;37969;53.132;6.370;2023-05-23T11:20:45;17.75;;;4.20;;
51943;SDS011;37969;53.132;6.370;2023-05-23T11:23:12;18.30;;;4.10;;
51943;SDS011;37969;53.132;6.370;2023-05-23T11:25:39;20.20;;;4.20;;
51943;SDS011;37969;53.132;6.370;2023-05-23T11:28:07;19.10;;;5.13;;
51943;SDS011;37969;53.132;6.370;2023-05-23T11:30:35;19.48;;;3.38;;
51943;SDS011;37969;53.132;6.370;2023-05-23T11:33:05;26.63;;;5.38;;
51943;SDS011;37969;53.132;6.370;2023-05-23T11:35:33;18.65;;;3.95;;
51943;SDS011;37969;53.132;6.370;2023-05-23T11:37:59;16.23;;;3.63;;
51943;SDS011;37969;53.132;6.370;2023-05-23T11:40:34;22.42;;;4.50;;
51943;SDS011;37969;53.132;6.370;2023-05-23T11:43:02;16.73;;;3.80;;
51943;SDS011;37969;53.132;6.370;2023-05-23T11:45:29;23.10;;;4.93;;
51943;SDS011;37969;53.132;6.370;2023-05-23T11:47:56;27.38;;;5.00;;
51943;SDS011;37969;53.132;6.370;2023-05-23T11:50:23;26.60;;;4.90;;
51943;SDS011;37969;53.132;6.370;2023-05-23T11:52:49;25.95;;;4.60;;
51943;SDS011;37969;53.132;6.370;2023-05-23T11:55:16;18.75;;;3.78;;
51943;SDS011;37969;53.132;6.370;2023-05-23T11:57:42;17.10;;;4.03;;
51943;SDS011;37969;53.132;6.370;2023-05-23T12:00:09;17.35;;;3.65;;
51943;SDS011;37969;53.132;6.370;2023-05-23T12:02:38;20.60;;;3.70;;
51943;SDS011;37969;53.132;6.370;2023-05-23T12:05:07;16.42;;;4.53;;
51943;SDS011;37969;53.132;6.370;2023-05-23T12:07:33;24.45;;;3.92;;
51943;SDS011;37969;53.132;6.370;2023-05-23T12:10:01;23.08;;;5.00;;
51943;SDS011;37969;53.132;6.370;2023-05-23T12:12:28;19.60;;;4.18;;
51943;SDS011;37969;53.132;6.370;2023-05-23T12:14:54;20.33;;;4.38;;
51943;SDS011;37969;53.132;6.370;2023-05-23T12:17:21;20.33;;;4.70;;
51943;SDS011;37969;53.132;6.370;2023-05-23T12:19:47;21.90;;;4.57;;
51943;SDS011;37969;53.132;6.370;2023-05-23T12:22:14;22.98;;;3.58;;
51943;SDS011;37969;53.132;6.370;2023-05-23T12:24:44;24.95;;;4.30;;
51943;SDS011;37969;53.132;6.370;2023-05-23T12:27:11;19.77;;;3.88;;
51943;SDS011;37969;53.132;6.370;2023-05-23T12:29:37;15.73;;;3.95;;
51943;SDS011;37969;53.132;6.370;2023-05-23T12:32:05;17.63;;;3.70;;
51943;SDS011;37969;53.132;6.370;2023-05-23T12:34:32;13.00;;;3.90;;
51943;SDS011;37969;53.132;6.370;2023-05-23T12:36:59;18.70;;;3.47;;
51943;SDS011;37969;53.132;6.370;2023-05-23T12:39:28;14.80;;;3.47;;
51943;SDS011;37969;53.132;6.370;2023-05-23T12:41:54;20.88;;;3.90;;
51943;SDS011;37969;53.132;6.370;2023-05-23T12:44:22;15.60;;;3.80;;
51943;SDS011;37969;53.132;6.370;2023-05-23T12:46:48;17.80;;;3.42;;
51943;SDS011;37969;53.132;6.370;2023-05-23T12:49:15;14.13;;;3.25;;
51943;SDS011;37969;53.132;6.370;2023-05-23T12:51:41;21.63;;;3.90;;
51943;SDS011;37969;53.132;6.370;2023-05-23T12:54:07;16.38;;;4.50;;
51943;SDS011;37969;53.132;6.370;2023-05-23T12:56:33;19.88;;;3.92;;
51943;SDS011;37969;53.132;6.370;2023-05-23T12:59:01;16.42;;;3.92;;
51943;SDS011;37969;53.132;6.370;2023-05-23T13:01:28;14.07;;;3.25;;
51943;SDS011;37969;53.132;6.370;2023-05-23T13:03:55;19.52;;;3.42;;
51943;SDS011;37969;53.132;6.370;2023-05-23T13:06:21;20.02;;;4.10;;
51943;SDS011;37969;53.132;6.370;2023-05-23T13:08:47;15.82;;;3.65;;
51943;SDS011;37969;53.132;6.370;2023-05-23T13:11:15;16.63;;;3.25;;
51943;SDS011;37969;53.132;6.370;2023-05-23T13:13:41;19.65;;;4.32;;
51943;SDS011;37969;53.132;6.370;2023-05-23T13:16:07;18.30;;;4.05;;
51943;SDS011;37969;53.132;6.370;2023-05-23T13:18:33;19.55;;;3.42;;
51943;SDS011;37969;53.132;6.370;2023-05-23T13:21:00;17.02;;;4.03;;
51943;SDS011;37969;53.132;6.370;2023-05-23T13:23:26;16.75;;;3.67;;
51943;SDS011;37969;53.132;6.370;2023-05-23T13:25:52;20.67;;;4.03;;
51943;SDS011;37969;53.132;6.370;2023-05-23T13:28:18;17.77;;;3.65;;
51943;SDS011;37969;53.132;6.370;2023-05-23T13:30:44;16.45;;;3.53;;
51943;SDS011;37969;53.132;6.370;2023-05-23T13:33:11;15.70;;;3.30;;
51943;SDS011;37969;53.132;6.370;2023-05-23T13:35:37;16.27;;;3.17;;
51943;SDS011;37969;53.132;6.370;2023-05-23T13:38:03;18.80;;;3.58;;
51943;SDS011;37969;53.132;6.370;2023-05-23T13:40:29;21.15;;;4.68;;
51943;SDS011;37969;53.132;6.370;2023-05-23T13:42:55;22.25;;;4.00;;
51943;SDS011;37969;53.132;6.370;2023-05-23T13:45:21;24.85;;;4.68;;
51943;SDS011;37969;53.132;6.370;2023-05-23T13:47:49;17.00;;;4.07;;
51943;SDS011;37969;53.132;6.370;2023-05-23T13:50:15;16.77;;;3.08;;
51943;SDS011;37969;53.132;6.370;2023-05-23T13:52:41;14.93;;;2.97;;
51943;SDS011;37969;53.132;6.370;2023-05-23T13:55:07;15.88;;;3.65;;
51943;SDS011;37969;53.132;6.370;2023-05-23T13:57:34;18.85;;;3.92;;
51943;SDS011;37969;53.132;6.370;2023-05-23T14:00:00;14.00;;;2.95;;
51943;SDS011;37969;53.132;6.370;2023-05-23T14:02:27;15.00;;;3.83;;
51943;SDS011;37969;53.132;6.370;2023-05-23T14:04:56;13.35;;;2.78;;
51943;SDS011;37969;53.132;6.370;2023-05-23T14:07:22;16.42;;;3.47;;
51943;SDS011;37969;53.132;6.370;2023-05-23T14:09:49;14.40;;;3.38;;
51943;SDS011;37969;53.132;6.370;2023-05-23T14:12:15;13.63;;;3.38;;
51943;SDS011;37969;53.132;6.370;2023-05-23T14:14:41;12.55;;;3.42;;
51943;SDS011;37969;53.132;6.370;2023-05-23T14:17:12;14.00;;;3.13;;
51943;SDS011;37969;53.132;6.370;2023-05-23T14:19:38;16.33;;;3.22;;
51943;SDS011;37969;53.132;6.370;2023-05-23T14:22:05;17.05;;;4.03;;
51943;SDS011;37969;53.132;6.370;2023-05-23T14:24:31;20.30;;;3.78;;
51943;SDS011;37969;53.132;6.370;2023-05-23T14:26:57;12.30;;;3.13;;
51943;SDS011;37969;53.132;6.370;2023-05-23T14:29:23;22.63;;;4.68;;
51943;SDS011;37969;53.132;6.370;2023-05-23T14:31:49;15.43;;;3.33;;
51943;SDS011;37969;53.132;6.370;2023-05-23T14:34:15;12.05;;;2.63;;
51943;SDS011;37969;53.132;6.370;2023-05-23T14:36:42;18.05;;;4.07;;
51943;SDS011;37969;53.132;6.370;2023-05-23T14:39:08;16.20;;;3.58;;
51943;SDS011;37969;53.132;6.370;2023-05-23T14:41:35;20.35;;;3.80;;
51943;SDS011;37969;53.132;6.370;2023-05-23T14:44:02;20.92;;;3.50;;
51943;SDS011;37969;53.132;6.370;2023-05-23T14:46:28;18.08;;;3.83;;